Time;durP1;ratioP1;P1;durP2;ratioP2;P2;SDS_P1;SDS_P2;PMS_P1;PMS_P2;Temp;Humidity;BMP_temperature;BMP_pressure;BME280_temperature;BME280_humidity;BME280_pressure;Samples;Min_cycle;Max_cycle;Signal;HPM_P1;HPM_P2
2022/06/05 00:01:06;;;;;;;14.50;4.78;;;11.20;99.90;;;;;;5058203;28;20044;-71
2022/06/05 00:03:57;;;;;;;9.75;4.20;;;11.10;99.90;;;;;;5075850;28;20055;-71
2022/06/05 00:06:48;;;;;;;8.45;4.25;;;11.10;99.90;;;;;;5057979;28;20456;-71
2022/06/05 00:09:38;;;;;;;8.88;4.80;;;11.20;99.90;;;;;;5041057;28;20057;-71
2022/06/05 00:12:12;;;;;;;8.15;4.30;;;11.20;99.90;;;;;;5057296;28;20068;-71
2022/06/05 00:14:39;;;;;;;13.15;4.55;;;11.20;99.90;;;;;;5057816;28;20094;-71
2022/06/05 00:17:15;;;;;;;8.40;3.95;;;11.20;99.90;;;;;;5041416;28;20044;-71
2022/06/05 00:19:45;;;;;;;9.85;4.18;;;11.20;99.90;;;;;;5075289;28;20048;-71
2022/06/05 00:22:11;;;;;;;13.63;4.47;;;11.10;99.90;;;;;;5082929;28;20075;-71
2022/06/05 00:24:37;;;;;;;10.32;4.30;;;11.20;99.90;;;;;;5095527;28;20080;-70
2022/06/05 00:27:37;;;;;;;9.38;5.32;;;11.20;99.90;;;;;;5077291;28;20052;-71
2022/06/05 00:30:05;;;;;;;7.90;4.85;;;11.10;99.90;;;;;;5077920;28;20055;-72
2022/06/05 00:32:44;;;;;;;9.57;4.72;;;11.20;99.90;;;;;;5060709;28;20047;-71
2022/06/05 00:35:15;;;;;;;10.73;4.00;;;11.20;99.90;;;;;;5095296;28;20390;-71
2022/06/05 00:37:48;;;;;;;13.73;4.78;;;11.20;99.90;;;;;;5072471;28;20441;-71
2022/06/05 00:40:32;;;;;;;9.20;4.85;;;11.20;99.90;;;;;;5057400;28;20072;-70
2022/06/05 00:42:59;;;;;;;10.68;4.15;;;11.20;99.90;;;;;;5040957;28;20059;-72
2022/06/05 00:45:28;;;;;;;8.23;4.10;;;11.20;99.90;;;;;;5057031;28;20123;-71
2022/06/05 00:47:54;;;;;;;10.50;4.82;;;11.10;99.90;;;;;;5074776;28;20055;-71
2022/06/05 00:50:24;;;;;;;8.98;4.22;;;11.20;99.90;;;;;;5056981;28;20040;-71
2022/06/05 00:52:55;;;;;;;9.45;4.53;;;11.20;99.90;;;;;;5057547;28;20376;-71
2022/06/05 00:55:21;;;;;;;12.00;4.90;;;11.20;99.90;;;;;;5057444;28;20063;-70
2022/06/05 00:57:47;;;;;;;11.70;4.57;;;11.10;99.90;;;;;;5057360;28;20048;-71
2022/06/05 01:00:23;;;;;;;8.02;4.35;;;11.10;99.90;;;;;;5056809;28;20048;-71
2022/06/05 01:02:52;;;;;;;7.55;4.57;;;11.10;99.90;;;;;;5057352;28;20452;-70
2022/06/05 01:05:20;;;;;;;12.30;4.85;;;11.20;99.90;;;;;;5074780;28;20044;-71
2022/06/05 01:07:46;;;;;;;11.63;4.53;;;11.20;99.90;;;;;;5074891;28;20107;-71
2022/06/05 01:10:14;;;;;;;10.35;5.20;;;11.10;99.90;;;;;;5061414;28;20216;-72
2022/06/05 01:13:01;;;;;;;12.27;5.13;;;11.10;99.90;;;;;;5060734;28;20467;-71
2022/06/05 01:15:26;;;;;;;10.73;4.65;;;11.10;99.90;;;;;;5061557;28;20067;-71
2022/06/05 01:17:56;;;;;;;9.35;3.85;;;11.10;99.90;;;;;;5078261;28;20049;-71
2022/06/05 01:20:47;;;;;;;11.27;4.82;;;11.20;99.90;;;;;;5061480;28;20044;-71
2022/06/05 01:23:24;;;;;;;11.25;4.80;;;11.10;99.90;;;;;;5060907;28;20044;-71
2022/06/05 01:26:16;;;;;;;13.73;5.25;;;11.10;99.90;;;;;;5060912;28;20048;-70
2022/06/05 01:28:51;;;;;;;12.38;5.80;;;11.10;99.90;;;;;;5060791;28;20053;-71
2022/06/05 01:31:29;;;;;;;7.82;4.43;;;11.10;99.90;;;;;;5078453;28;20102;-71
2022/06/05 01:34:12;;;;;;;8.02;4.45;;;11.10;99.90;;;;;;5078721;28;20460;-71
2022/06/05 01:36:55;;;;;;;12.27;5.32;;;11.20;99.90;;;;;;5060963;28;20109;-71
2022/06/05 01:39:39;;;;;;;7.45;4.60;;;11.10;99.90;;;;;;5061053;28;20079;-71
2022/06/05 01:42:13;;;;;;;8.55;4.65;;;11.20;99.90;;;;;;5075981;28;20490;-70
2022/06/05 01:44:45;;;;;;;16.90;5.28;;;11.20;99.90;;;;;;5080364;28;20456;-70
2022/06/05 01:47:32;;;;;;;15.45;5.40;;;11.20;99.90;;;;;;5080429;28;20059;-71
2022/06/05 01:50:27;;;;;;;10.32;4.63;;;11.30;99.90;;;;;;5080523;28;20052;-72
2022/06/05 01:53:18;;;;;;;8.95;4.72;;;11.20;99.90;;;;;;5080937;28;20152;-71
2022/06/05 01:56:00;;;;;;;10.32;4.13;;;11.20;99.90;;;;;;5098202;28;20468;-71
2022/06/05 01:58:36;;;;;;;10.60;4.85;;;11.20;99.90;;;;;;5076319;28;20060;-71
2022/06/05 02:01:06;;;;;;;8.68;4.55;;;11.30;99.90;;;;;;5060410;28;20119;-71
2022/06/05 02:03:57;;;;;;;15.32;5.22;;;11.20;99.90;;;;;;5060065;28;20040;-71
2022/06/05 02:06:32;;;;;;;11.15;4.75;;;11.20;99.90;;;;;;5060157;28;20063;-71
2022/06/05 02:09:13;;;;;;;9.40;4.40;;;11.20;99.90;;;;;;5077702;28;20153;-71
2022/06/05 02:11:39;;;;;;;8.25;4.60;;;11.20;99.90;;;;;;5060336;28;20468;-71
2022/06/05 02:14:09;;;;;;;7.95;4.30;;;11.30;99.90;;;;;;5060199;28;20044;-71
2022/06/05 02:16:38;;;;;;;7.25;4.13;;;11.30;99.90;;;;;;5093884;28;20054;-71
2022/06/05 02:19:16;;;;;;;9.23;4.18;;;11.30;99.90;;;;;;5079801;28;20062;-71
2022/06/05 02:21:43;;;;;;;8.93;4.63;;;11.20;99.90;;;;;;5097405;28;20044;-71
2022/06/05 02:24:11;;;;;;;9.77;4.78;;;11.20;99.90;;;;;;5098044;28;20043;-70
2022/06/05 02:26:37;;;;;;;13.60;5.40;;;11.30;99.90;;;;;;5079896;28;20039;-71
2022/06/05 02:29:18;;;;;;;13.00;5.13;;;11.30;99.90;;;;;;5097906;28;20456;-71
2022/06/05 02:32:08;;;;;;;7.00;4.20;;;11.20;99.90;;;;;;5059398;28;20070;-71
2022/06/05 02:35:01;;;;;;;12.13;6.95;;;11.30;99.90;;;;;;5077633;28;20365;-71
2022/06/05 02:38:11;;;;;;;11.45;4.10;;;11.20;99.90;;;;;;5077170;28;20059;-71
2022/06/05 02:40:46;;;;;;;17.05;5.13;;;11.30;99.90;;;;;;5056678;28;20080;-71
2022/06/05 02:43:34;;;;;;;10.10;4.28;;;11.30;99.90;;;;;;5077062;28;20124;-72
2022/06/05 02:46:26;;;;;;;8.25;4.35;;;11.30;99.90;;;;;;5059714;28;20106;-71
2022/06/05 02:49:12;;;;;;;9.02;4.75;;;11.40;99.90;;;;;;5059754;28;20059;-72
2022/06/05 02:51:43;;;;;;;10.40;5.10;;;11.40;99.90;;;;;;5076745;28;20148;-72
2022/06/05 02:54:21;;;;;;;7.35;4.07;;;11.30;99.90;;;;;;5059134;28;20063;-71
2022/06/05 02:56:47;;;;;;;11.80;6.00;;;11.40;99.90;;;;;;5059024;28;20044;-72
2022/06/05 02:59:13;;;;;;;9.73;4.85;;;11.40;99.90;;;;;;5076391;28;20044;-71
2022/06/05 03:04:23;;;;;;;7.97;4.95;;;11.40;99.90;;;;;;5058722;28;20056;-71
2022/06/05 03:06:48;;;;;;;10.90;5.68;;;11.40;99.90;;;;;;5059434;28;20045;-71
2022/06/05 03:09:15;;;;;;;10.70;5.50;;;11.40;99.90;;;;;;5059385;28;20052;-71
2022/06/05 03:11:42;;;;;;;10.27;5.78;;;11.40;99.90;;;;;;5076551;28;20387;-70
2022/06/05 03:14:08;;;;;;;11.90;4.43;;;11.50;99.90;;;;;;5062498;28;20097;-71
2022/06/05 03:16:34;;;;;;;23.73;6.57;;;11.40;99.90;;;;;;5062142;28;20086;-71
2022/06/05 03:19:00;;;;;;;11.25;4.78;;;11.40;99.90;;;;;;5096740;28;20098;-72
2022/06/05 03:21:26;;;;;;;14.75;6.60;;;11.40;99.90;;;;;;5078863;28;20097;-72
2022/06/05 03:23:51;;;;;;;11.00;4.93;;;11.50;99.90;;;;;;5078852;28;20062;-71
2022/06/05 03:26:17;;;;;;;13.00;6.28;;;11.50;99.90;;;;;;5078742;28;20044;-71
2022/06/05 03:28:42;;;;;;;11.23;5.32;;;11.50;99.90;;;;;;5093165;28;20511;-71
2022/06/05 03:31:09;;;;;;;14.38;6.10;;;11.50;99.90;;;;;;5067290;28;20127;-71
2022/06/05 03:33:37;;;;;;;9.63;5.00;;;11.50;99.90;;;;;;5058336;28;20048;-71
2022/06/05 03:36:12;;;;;;;10.68;5.45;;;11.60;99.90;;;;;;5058814;28;20060;-71
2022/06/05 03:38:38;;;;;;;10.90;5.68;;;11.60;99.90;;;;;;5058313;28;20044;-71
2022/06/05 03:41:04;;;;;;;9.27;5.20;;;11.70;99.90;;;;;;5058486;28;20051;-70
2022/06/05 03:43:30;;;;;;;9.05;4.82;;;11.70;99.90;;;;;;5058281;28;20127;-70
2022/06/05 03:46:01;;;;;;;15.23;5.50;;;11.70;99.90;;;;;;5068370;28;20460;-71
2022/06/05 03:48:26;;;;;;;10.68;5.72;;;11.80;99.90;;;;;;5063081;28;20076;-71
2022/06/05 03:50:52;;;;;;;11.02;5.55;;;11.70;99.90;;;;;;5075940;28;20087;-72
2022/06/05 03:53:18;;;;;;;12.10;5.15;;;11.90;99.90;;;;;;5057695;28;20041;-71
2022/06/05 03:55:43;;;;;;;11.60;5.50;;;11.90;99.90;;;;;;5075578;28;20058;-71
2022/06/05 03:58:09;;;;;;;14.82;6.07;;;11.90;99.90;;;;;;5058405;28;20048;-71
2022/06/05 04:00:34;;;;;;;13.50;5.95;;;11.90;99.90;;;;;;5075474;28;20091;-70
2022/06/05 04:03:00;;;;;;;12.38;5.82;;;12.00;99.90;;;;;;5057580;28;20072;-70
2022/06/05 04:05:26;;;;;;;11.77;6.25;;;12.00;99.90;;;;;;5057791;28;20043;-71
2022/06/05 04:07:53;;;;;;;12.90;5.72;;;12.10;99.90;;;;;;5075439;28;20102;-71
2022/06/05 04:10:19;;;;;;;22.98;6.70;;;12.10;99.90;;;;;;5058287;28;20098;-70
2022/06/05 04:12:46;;;;;;;10.40;5.32;;;12.20;99.90;;;;;;5057802;28;20048;-71
2022/06/05 04:15:12;;;;;;;10.77;5.65;;;12.20;99.90;;;;;;5075589;28;20041;-71
2022/06/05 04:17:38;;;;;;;13.23;5.40;;;12.30;99.90;;;;;;5060496;28;20055;-71
2022/06/05 04:20:05;;;;;;;11.35;5.93;;;12.30;99.90;;;;;;5077766;28;20435;-72
2022/06/05 04:22:33;;;;;;;20.60;6.57;;;12.40;99.90;;;;;;5095620;28;20096;-71
2022/06/05 04:24:59;;;;;;;10.80;5.75;;;12.50;99.90;;;;;;5095512;28;20384;-71
2022/06/05 04:27:25;;;;;;;11.88;6.32;;;12.60;99.90;;;;;;5076858;28;20052;-71
2022/06/05 04:29:51;;;;;;;11.95;5.35;;;12.70;99.90;;;;;;5060567;28;20063;-71
2022/06/05 04:32:16;;;;;;;12.85;5.30;;;12.70;99.90;;;;;;5077736;28;20044;-71
2022/06/05 04:34:42;;;;;;;12.38;5.88;;;12.90;99.90;;;;;;5095551;28;20039;-72
2022/06/05 04:37:08;;;;;;;15.45;5.25;;;13.10;99.90;;;;;;5073225;28;20060;-71
2022/06/05 04:39:35;;;;;;;10.63;5.22;;;13.10;99.90;;;;;;5057362;28;20048;-71
2022/06/05 04:42:00;;;;;;;20.48;7.00;;;13.20;99.90;;;;;;5074911;28;20078;-70
2022/06/05 04:44:26;;;;;;;9.18;5.25;;;13.20;99.90;;;;;;5056617;28;20048;-71
2022/06/05 04:46:52;;;;;;;10.98;5.57;;;13.40;99.90;;;;;;5057389;28;20055;-72
2022/06/05 04:49:18;;;;;;;15.20;5.13;;;13.50;99.90;;;;;;5075033;28;20040;-71
2022/06/05 04:51:44;;;;;;;10.43;4.95;;;13.50;99.90;;;;;;5073613;28;20152;-71
2022/06/05 04:54:14;;;;;;;12.02;5.70;;;13.70;99.90;;;;;;5074284;28;20508;-71
2022/06/05 04:56:39;;;;;;;8.88;5.07;;;13.70;99.90;;;;;;5057567;28;20057;-71
2022/06/05 04:59:05;;;;;;;12.57;5.78;;;13.80;99.90;;;;;;5057003;28;20426;-72
2022/06/05 05:01:33;;;;;;;12.30;5.00;;;13.90;99.90;;;;;;5074731;28;20127;-71
2022/06/05 05:04:01;;;;;;;10.95;5.00;;;13.90;99.90;;;;;;5057344;28;20048;-70
2022/06/05 05:06:29;;;;;;;9.82;6.03;;;14.00;99.90;;;;;;5057790;28;20067;-71
2022/06/05 05:08:55;;;;;;;9.82;4.50;;;14.10;99.90;;;;;;5096452;28;20040;-70
2022/06/05 05:11:21;;;;;;;9.88;5.50;;;14.30;99.90;;;;;;5072847;28;20048;-71
2022/06/05 05:13:48;;;;;;;12.82;5.95;;;14.60;99.90;;;;;;5060252;28;20463;-72
2022/06/05 05:16:13;;;;;;;19.42;5.78;;;15.10;99.90;;;;;;5074796;28;20405;-72
2022/06/05 05:18:39;;;;;;;14.10;6.05;;;15.80;99.90;;;;;;5057040;28;20080;-71
2022/06/05 05:21:13;;;;;;;10.55;4.50;;;16.50;99.90;;;;;;5074585;28;20090;-71
2022/06/05 05:23:38;;;;;;;;;;;17.00;99.90;;;;;;5057724;28;20354;-71
2022/06/05 05:26:07;;;;;;;8.18;4.60;;;17.20;99.90;;;;;;5088799;28;19982;-72
2022/06/05 05:28:33;;;;;;;8.70;4.88;;;17.60;99.90;;;;;;5077549;28;20048;-72
2022/06/05 05:30:58;;;;;;;11.25;4.88;;;17.70;99.90;;;;;;5077158;28;20482;-72
2022/06/05 05:33:24;;;;;;;10.48;5.28;;;17.70;99.90;;;;;;5077069;28;20044;-71
2022/06/05 05:35:50;;;;;;;7.82;4.40;;;17.60;99.90;;;;;;5060155;28;20051;-71
2022/06/05 05:38:15;;;;;;;8.45;5.05;;;17.40;99.90;;;;;;5072559;28;20149;-72
2022/06/05 05:43:25;;;;;;;6.55;4.30;;;17.20;99.90;;;;;;5056453;28;20186;-70
2022/06/05 05:45:51;;;;;;;10.10;4.57;;;17.20;99.90;;;;;;5059565;28;20127;-71
2022/06/05 05:48:17;;;;;;;8.02;4.68;;;17.10;99.90;;;;;;5065640;28;20368;-73
2022/06/05 05:50:45;;;;;;;8.18;4.22;;;16.90;99.90;;;;;;5082561;28;20052;-71
2022/06/05 05:53:11;;;;;;;8.95;4.45;;;16.90;99.90;;;;;;5083843;28;20090;-71
2022/06/05 05:55:37;;;;;;;6.85;4.30;;;16.70;99.90;;;;;;5067458;28;20052;-71
2022/06/05 05:58:03;;;;;;;7.78;4.28;;;16.60;99.90;;;;;;5072794;28;20052;-70
2022/06/05 06:00:28;;;;;;;9.40;5.50;;;16.60;99.90;;;;;;5078104;28;20087;-71
2022/06/05 06:02:54;;;;;;;10.60;4.22;;;16.60;99.90;;;;;;5076020;28;20061;-71
2022/06/05 06:05:20;;;;;;;6.82;3.80;;;16.70;99.90;;;;;;5060211;28;20059;-70
2022/06/05 06:07:46;;;;;;;10.52;5.15;;;16.60;99.90;;;;;;5077395;28;20116;-70
2022/06/05 06:10:12;;;;;;;7.97;4.75;;;16.70;99.90;;;;;;5077439;28;20044;-71
2022/06/05 06:12:38;;;;;;;8.23;4.75;;;16.90;99.90;;;;;;5059483;28;20049;-72
2022/06/05 06:15:05;;;;;;;9.80;5.13;;;16.90;99.90;;;;;;5084704;28;20483;-72
2022/06/05 06:17:31;;;;;;;15.07;5.50;;;17.00;99.90;;;;;;5082180;28;20119;-70
2022/06/05 06:19:57;;;;;;;11.70;4.88;;;17.20;99.90;;;;;;5061644;28;20052;-71
2022/06/05 06:22:22;;;;;;;8.40;4.78;;;17.20;99.90;;;;;;5079879;28;20128;-71
2022/06/05 06:24:48;;;;;;;9.23;5.07;;;17.20;99.90;;;;;;5096946;28;20459;-72
2022/06/05 06:27:14;;;;;;;9.18;4.25;;;17.30;99.90;;;;;;5096601;28;20056;-71
2022/06/05 06:29:40;;;;;;;9.68;4.15;;;17.40;99.90;;;;;;5079203;28;20063;-72
2022/06/05 06:32:06;;;;;;;8.98;5.25;;;17.50;99.90;;;;;;5071635;28;20372;-72
2022/06/05 06:34:32;;;;;;;8.30;4.30;;;17.80;99.90;;;;;;5064921;28;20050;-69
2022/06/05 06:36:57;;;;;;;13.90;5.15;;;18.10;99.90;;;;;;5079196;28;20411;-70
2022/06/05 06:39:23;;;;;;;11.73;5.00;;;18.40;99.90;;;;;;5089515;28;20041;-68
2022/06/05 06:41:49;;;;;;;10.68;4.63;;;18.60;99.90;;;;;;5059753;28;20147;-68
2022/06/05 06:44:16;;;;;;;9.52;5.13;;;18.70;99.90;;;;;;5059167;28;20036;-70
2022/06/05 06:46:42;;;;;;;7.60;4.65;;;18.70;99.90;;;;;;5058915;28;20044;-70
2022/06/05 06:49:07;;;;;;;8.25;4.53;;;18.60;99.90;;;;;;5060104;28;20052;-69
2022/06/05 06:51:33;;;;;;;9.73;5.35;;;18.40;99.90;;;;;;5088968;28;20059;-68
2022/06/05 06:53:59;;;;;;;9.23;4.63;;;18.40;99.90;;;;;;5042545;28;20055;-68
2022/06/05 06:56:28;;;;;;;10.82;5.68;;;18.50;99.90;;;;;;5059025;28;20418;-68
2022/06/05 06:58:55;;;;;;;13.65;5.32;;;18.60;99.90;;;;;;5076544;28;20448;-68
2022/06/05 07:01:21;;;;;;;10.57;5.07;;;18.60;99.90;;;;;;5064056;28;20055;-68
2022/06/05 07:03:47;;;;;;;8.48;4.60;;;18.80;99.90;;;;;;5069610;28;20111;-69
2022/06/05 07:06:13;;;;;;;7.05;4.45;;;19.00;99.90;;;;;;5089778;28;20471;-69
2022/06/05 07:08:40;;;;;;;10.93;4.88;;;19.20;99.90;;;;;;5074657;28;20048;-70
2022/06/05 07:11:12;;;;;;;7.55;4.95;;;19.60;99.90;;;;;;5058108;28;20056;-70
2022/06/05 07:13:38;;;;;;;10.32;5.13;;;19.90;99.90;;;;;;5064999;28;20055;-69
2022/06/05 07:16:06;;;;;;;7.38;4.22;;;20.30;99.90;;;;;;5078831;28;20453;-69
2022/06/05 07:18:32;;;;;;;9.77;5.05;;;20.40;99.90;;;;;;5074006;28;20036;-68
2022/06/05 07:20:57;;;;;;;8.63;4.43;;;20.80;99.90;;;;;;5076845;28;20044;-69
2022/06/05 07:23:23;;;;;;;7.75;4.47;;;21.10;99.90;;;;;;5095105;28;20131;-70
2022/06/05 07:25:51;;;;;;;6.50;4.05;;;21.30;99.90;;;;;;5071569;28;20049;-70
2022/06/05 07:28:19;;;;;;;11.82;4.82;;;21.60;99.90;;;;;;5075515;28;20041;-69
2022/06/05 07:30:49;;;;;;;10.85;4.53;;;21.70;99.90;;;;;;5075822;28;20059;-69
2022/06/05 07:33:15;;;;;;;6.70;3.95;;;22.10;99.90;;;;;;5063843;28;20058;-69
2022/06/05 07:35:41;;;;;;;7.40;4.13;;;22.50;99.90;;;;;;5075684;28;20051;-69
2022/06/05 07:38:07;;;;;;;8.95;4.15;;;22.90;99.90;;;;;;5073443;28;20044;-69
2022/06/05 07:40:41;;;;;;;8.18;3.83;;;22.90;99.90;;;;;;5074834;28;20040;-71
2022/06/05 07:43:09;;;;;;;5.43;3.83;;;23.20;99.90;;;;;;5070147;28;20097;-70
2022/06/05 07:45:36;;;;;;;6.35;4.53;;;23.30;99.90;;;;;;5095719;28;20055;-71
2022/06/05 07:48:02;;;;;;;7.45;4.15;;;23.30;99.90;;;;;;5069740;28;20056;-71
2022/06/05 07:50:27;;;;;;;7.38;4.32;;;23.20;99.90;;;;;;5075278;28;20048;-72
2022/06/05 07:55:37;;;;;;;7.05;3.92;;;23.10;99.90;;;;;;5075257;28;20469;-71
2022/06/05 07:58:03;;;;;;;6.45;3.47;;;23.10;99.90;;;;;;5044541;28;20063;-72
2022/06/05 08:00:29;;;;;;;6.60;3.95;;;23.30;99.90;;;;;;5058330;28;20052;-71
2022/06/05 08:02:54;;;;;;;7.22;4.05;;;23.20;99.90;;;;;;5058493;28;20091;-71
2022/06/05 08:05:20;;;;;;;8.80;3.97;;;23.10;99.90;;;;;;5075070;28;20101;-71
2022/06/05 08:07:46;;;;;;;4.88;3.03;;;23.10;99.90;;;;;;5060138;28;20044;-71
2022/06/05 08:10:11;;;;;;;4.60;3.40;;;23.50;99.90;;;;;;5057541;28;20063;-71
2022/06/05 08:12:38;;;;;;;6.22;3.88;;;23.70;99.90;;;;;;5070878;28;20081;-71
2022/06/05 08:15:09;;;;;;;6.53;3.60;;;23.80;99.90;;;;;;5094582;28;20448;-71
2022/06/05 08:17:36;;;;;;;5.25;3.42;;;23.60;99.90;;;;;;5077806;28;20055;-71
2022/06/05 08:20:04;;;;;;;6.03;3.33;;;23.70;99.80;;;;;;5087214;28;20055;-71
2022/06/05 08:22:29;;;;;;;6.80;3.40;;;23.80;99.90;;;;;;5072467;28;20123;-71
2022/06/05 08:24:55;;;;;;;5.70;3.25;;;23.70;99.90;;;;;;5057393;28;20186;-72
2022/06/05 08:27:24;;;;;;;5.20;3.25;;;23.60;99.90;;;;;;5057349;28;20135;-71
2022/06/05 08:29:52;;;;;;;5.20;3.03;;;23.50;99.90;;;;;;5091565;28;20036;-70
2022/06/05 08:32:18;;;;;;;8.18;3.05;;;23.30;99.90;;;;;;5076597;28;20048;-72
2022/06/05 08:34:44;;;;;;;7.20;3.45;;;23.20;99.90;;;;;;5094961;28;20127;-70
2022/06/05 08:43:03;;;;;;;6.38;3.53;;;23.60;99.90;;;;;;5056616;28;20052;-72
2022/06/05 08:45:39;;;;;;;4.47;3.33;;;23.90;99.90;;;;;;5084699;28;20512;-71
2022/06/05 08:48:16;;;;;;;5.20;3.30;;;23.90;99.90;;;;;;5069388;28;20052;-71
2022/06/05 08:50:53;;;;;;;5.70;3.22;;;23.80;99.90;;;;;;5065614;28;20051;-71
2022/06/05 08:53:46;;;;;;;6.43;3.45;;;23.90;99.90;;;;;;5085312;28;20063;-72
2022/06/05 08:56:22;;;;;;;6.22;3.40;;;23.60;99.90;;;;;;5068920;28;20055;-70
2022/06/05 08:58:53;;;;;;;5.75;2.80;;;23.60;99.90;;;;;;5085948;28;20051;-70
2022/06/05 09:01:30;;;;;;;8.13;3.58;;;23.30;99.90;;;;;;5074726;28;20040;-71
2022/06/05 09:04:23;;;;;;;4.93;3.42;;;23.20;99.90;;;;;;5066349;28;20906;-70
2022/06/05 09:07:03;;;;;;;6.50;3.90;;;23.10;99.90;;;;;;5094679;28;20044;-71
2022/06/05 09:09:40;;;;;;;5.45;3.35;;;22.90;99.90;;;;;;5077485;28;20345;-71
2022/06/05 09:12:16;;;;;;;5.55;3.17;;;22.80;99.90;;;;;;5059415;28;20090;-72
2022/06/05 09:14:54;;;;;;;8.43;3.33;;;22.80;99.90;;;;;;5076645;28;20493;-72
2022/06/05 09:17:21;;;;;;;4.07;2.63;;;22.90;99.90;;;;;;5074213;28;20105;-71
2022/06/05 09:19:50;;;;;;;6.13;3.28;;;23.10;99.90;;;;;;5074002;28;20041;-71
2022/06/05 09:22:54;;;;;;;5.00;2.90;;;23.30;99.90;;;;;;5076679;28;20052;-70
2022/06/05 09:25:54;;;;;;;5.18;3.10;;;23.70;99.90;;;;;;5095012;28;20047;-71
2022/06/05 09:28:57;;;;;;;5.38;3.33;;;23.60;99.90;;;;;;5076611;28;20052;-69
2022/06/05 09:31:35;;;;;;;5.50;3.00;;;23.80;99.90;;;;;;5016226;28;20162;-70
2022/06/05 09:34:18;;;;;;;5.03;3.05;;;23.80;99.90;;;;;;5060488;28;20140;-70
2022/06/05 09:36:56;;;;;;;4.18;2.95;;;23.90;99.90;;;;;;5060578;28;20110;-71
2022/06/05 09:39:40;;;;;;;5.18;3.35;;;24.20;99.90;;;;;;5060673;28;20048;-71
2022/06/05 09:42:29;;;;;;;5.80;2.85;;;24.40;99.90;;;;;;5076022;28;20464;-71
2022/06/05 09:45:29;;;;;;;6.72;3.03;;;24.30;99.90;;;;;;5060907;28;20058;-70
2022/06/05 09:48:00;;;;;;;5.82;2.85;;;24.40;99.90;;;;;;5060704;28;20059;-70
2022/06/05 09:50:28;;;;;;;4.70;3.10;;;24.50;99.90;;;;;;5060244;28;20044;-70
2022/06/05 09:52:54;;;;;;;4.28;2.58;;;24.40;99.90;;;;;;5077819;28;20353;-70
2022/06/05 09:55:57;;;;;;;5.35;3.33;;;24.50;99.90;;;;;;5065674;28;20051;-70
2022/06/05 09:58:27;;;;;;;;;;;24.50;99.90;;;;;;5060775;28;20051;-70
2022/06/05 10:01:18;;;;;;;5.22;2.90;;;24.60;99.90;;;;;;5060207;28;20341;-71
2022/06/05 10:03:44;;;;;;;5.40;3.10;;;24.60;99.90;;;;;;5077535;28;20048;-70
2022/06/05 10:06:28;;;;;;;7.25;3.38;;;24.60;99.80;;;;;;5060026;28;20466;-70
2022/06/05 10:08:59;;;;;;;6.03;2.97;;;24.70;99.70;;;;;;5060029;28;20063;-71
2022/06/05 10:11:54;;;;;;;4.82;3.45;;;24.70;99.90;;;;;;5088030;28;20545;-71
2022/06/05 10:14:34;;;;;;;6.13;2.75;;;24.90;99.90;;;;;;5080075;28;20405;-70
2022/06/05 10:17:09;;;;;;;4.75;3.13;;;25.20;99.90;;;;;;5080317;28;20074;-72
2022/06/05 10:19:59;;;;;;;3.88;2.70;;;25.40;99.90;;;;;;5096499;28;20134;-70
2022/06/05 10:22:33;;;;;;;6.45;2.92;;;25.50;99.70;;;;;;5074059;28;20048;-70
2022/06/05 10:25:44;;;;;;;6.00;3.13;;;25.60;99.50;;;;;;5070090;28;20040;-71
2022/06/05 10:28:22;;;;;;;5.13;3.33;;;25.40;98.80;;;;;;5066452;28;20475;-70
2022/06/05 10:31:04;;;;;;;5.10;3.28;;;25.30;99.00;;;;;;5069937;28;20464;-70
2022/06/05 10:33:39;;;;;;;5.05;3.17;;;25.50;98.80;;;;;;5084208;28;20060;-71
2022/06/05 10:36:15;;;;;;;7.28;2.90;;;25.60;99.00;;;;;;5060315;28;20102;-71
2022/06/05 10:39:18;;;;;;;3.85;2.67;;;25.60;98.80;;;;;;5059966;28;20363;-72
2022/06/05 10:42:12;;;;;;;7.55;3.58;;;25.40;99.60;;;;;;5088872;28;20044;-71
2022/06/05 10:45:05;;;;;;;4.82;3.30;;;25.50;98.60;;;;;;5070159;28;20117;-69
2022/06/05 10:47:34;;;;;;;;;;;25.40;98.90;;;;;;5097709;28;20109;-68
2022/06/05 10:50:11;;;;;;;5.72;3.17;;;25.40;99.90;;;;;;5079092;28;20011;-72
2022/06/05 10:52:53;;;;;;;4.28;3.00;;;25.10;98.60;;;;;;5078782;28;20056;-69
2022/06/05 10:55:18;;;;;;;4.00;2.67;;;25.10;99.30;;;;;;5061747;28;20054;-70
2022/06/05 10:58:12;;;;;;;5.65;2.95;;;25.20;99.90;;;;;;5095201;28;20051;-71
2022/06/05 11:00:43;;;;;;;7.25;3.47;;;25.40;99.50;;;;;;5087139;28;20127;-73
2022/06/05 11:03:25;;;;;;;5.13;2.88;;;25.50;98.90;;;;;;5106965;28;20135;-73
2022/06/05 11:06:27;;;;;;;3.53;2.50;;;25.50;99.40;;;;;;5093082;28;20051;-71
2022/06/05 11:09:08;;;;;;;4.57;2.75;;;25.70;99.80;;;;;;5110171;28;20043;-71
2022/06/05 11:15:12;;;;;;;6.00;3.20;;;25.80;98.80;;;;;;5098735;28;20043;-71
2022/06/05 11:17:47;;;;;;;3.72;2.47;;;26.00;98.60;;;;;;5099990;28;20105;-71
2022/06/05 11:20:21;;;;;;;4.35;2.95;;;26.00;99.20;;;;;;5098119;28;20051;-70
2022/06/05 11:23:03;;;;;;;3.88;2.75;;;26.00;98.00;;;;;;5072179;28;20059;-70
2022/06/05 11:25:33;;;;;;;4.20;3.08;;;25.90;99.50;;;;;;5058290;28;20058;-72
2022/06/05 11:28:20;;;;;;;4.57;2.88;;;25.90;98.30;;;;;;5076120;28;20334;-70
2022/06/05 11:31:04;;;;;;;4.57;3.10;;;25.70;99.40;;;;;;5058755;28;20045;-71
2022/06/05 11:33:35;;;;;;;6.47;2.90;;;25.70;97.90;;;;;;5075460;28;20480;-72
2022/06/05 11:36:19;;;;;;;4.38;2.70;;;25.80;98.30;;;;;;5075558;28;20052;-72
2022/06/05 11:38:59;;;;;;;3.65;2.42;;;25.60;97.80;;;;;;5058742;28;20044;-72
2022/06/05 11:41:44;;;;;;;4.32;2.40;;;25.70;98.50;;;;;;5058161;28;20365;-71
2022/06/05 11:44:21;;;;;;;6.68;2.90;;;25.70;97.70;;;;;;5075776;28;20033;-72
2022/06/05 11:47:03;;;;;;;5.55;2.50;;;25.70;98.90;;;;;;5075498;28;20528;-72
2022/06/05 11:49:42;;;;;;;4.53;3.00;;;25.70;98.40;;;;;;5063456;28;20108;-71
2022/06/05 11:52:15;;;;;;;4.45;2.88;;;25.60;97.20;;;;;;5080079;28;20135;-71
2022/06/05 11:55:05;;;;;;;4.63;2.70;;;25.70;97.80;;;;;;5075405;28;20182;-71
2022/06/05 11:57:38;;;;;;;5.22;2.60;;;25.70;97.70;;;;;;5075850;28;20048;-72
2022/06/05 12:00:16;;;;;;;4.13;3.30;;;25.70;97.60;;;;;;5058017;28;20045;-71
2022/06/05 12:03:18;;;;;;;5.68;3.03;;;25.60;96.70;;;;;;5058205;28;20420;-71
2022/06/05 12:06:08;;;;;;;4.53;3.50;;;25.50;96.60;;;;;;5057665;28;20369;-71
2022/06/05 12:08:39;;;;;;;3.90;2.95;;;25.50;97.50;;;;;;5057809;28;20048;-71
2022/06/05 12:11:23;;;;;;;5.80;3.47;;;25.40;97.50;;;;;;5075324;28;20055;-71
2022/06/05 12:14:07;;;;;;;3.72;2.38;;;25.50;97.20;;;;;;5057354;28;20451;-71
2022/06/05 12:16:46;;;;;;;4.63;3.05;;;25.50;97.60;;;;;;5074882;28;20052;-70
2022/06/05 12:19:26;;;;;;;4.18;2.90;;;25.50;98.20;;;;;;5058008;28;20049;-71
2022/06/05 12:22:05;;;;;;;5.40;3.22;;;25.60;98.00;;;;;;5074954;28;20046;-72
2022/06/05 12:24:39;;;;;;;6.30;3.53;;;25.40;96.80;;;;;;5074979;28;20084;-71
2022/06/05 12:27:15;;;;;;;5.40;2.97;;;25.50;97.40;;;;;;5075179;28;20384;-71
2022/06/05 12:29:48;;;;;;;4.95;3.08;;;25.50;97.20;;;;;;5057498;28;20414;-71
2022/06/05 12:33:00;;;;;;;4.28;3.28;;;25.50;97.30;;;;;;5074490;28;20446;-71
2022/06/05 12:35:29;;;;;;;4.40;3.08;;;25.30;97.40;;;;;;4977556;28;20053;-72
2022/06/05 12:37:58;;;;;;;5.15;3.33;;;25.20;97.70;;;;;;4977858;28;20387;-72
2022/06/05 12:40:31;;;;;;;6.28;2.90;;;25.30;98.00;;;;;;5018566;28;20057;-71
2022/06/05 12:43:14;;;;;;;6.25;3.38;;;25.30;98.70;;;;;;5057323;28;20127;-70
2022/06/05 12:45:43;;;;;;;4.05;2.83;;;25.30;98.10;;;;;;5074807;28;20041;-72
2022/06/05 12:48:11;;;;;;;4.15;2.85;;;25.30;98.00;;;;;;5074252;28;20082;-71
2022/06/05 12:51:00;;;;;;;6.07;3.25;;;25.30;98.10;;;;;;5057258;28;20052;-71
2022/06/05 12:53:54;;;;;;;9.93;2.95;;;25.20;97.80;;;;;;5056772;28;20567;-71
2022/06/05 12:56:26;;;;;;;5.20;3.35;;;25.10;97.90;;;;;;5075574;28;20040;-71
2022/06/05 12:59:14;;;;;;;4.95;2.85;;;25.10;98.00;;;;;;5075060;28;20378;-71
2022/06/05 13:01:52;;;;;;;5.95;3.70;;;25.00;97.90;;;;;;5056947;28;20048;-71
2022/06/05 13:04:41;;;;;;;4.45;3.20;;;25.00;98.70;;;;;;5057036;28;20053;-71
2022/06/05 13:07:47;;;;;;;6.43;3.50;;;25.00;98.20;;;;;;5057298;28;20048;-71
2022/06/05 13:10:35;;;;;;;4.80;2.90;;;25.10;98.70;;;;;;5056910;28;20052;-72
2022/06/05 13:13:03;;;;;;;5.15;2.65;;;25.20;98.50;;;;;;5074388;28;20044;-72
2022/06/05 13:15:38;;;;;;;4.20;3.28;;;25.20;98.20;;;;;;5073959;28;20448;-72
2022/06/05 13:18:28;;;;;;;6.47;3.15;;;25.30;97.70;;;;;;5074535;28;20044;-71
2022/06/05 13:21:31;;;;;;;4.60;3.00;;;25.10;98.30;;;;;;5074357;28;20059;-71
2022/06/05 13:24:12;;;;;;;6.00;3.08;;;25.10;98.20;;;;;;5057045;28;20056;-72
2022/06/05 13:26:51;;;;;;;5.72;3.05;;;25.00;98.20;;;;;;5074235;28;20131;-71
2022/06/05 13:29:40;;;;;;;4.80;3.05;;;25.20;98.80;;;;;;5057118;28;20041;-72
2022/06/05 13:32:32;;;;;;;5.35;2.97;;;25.30;98.90;;;;;;5074336;28;20045;-71
2022/06/05 13:35:12;;;;;;;6.07;3.10;;;25.50;99.40;;;;;;5032998;28;20057;-71
2022/06/05 13:38:02;;;;;;;5.40;3.35;;;25.70;98.00;;;;;;5065485;28;20379;-72